Time;durP1;ratioP1;P1;durP2;ratioP2;P2;SDS_P1;SDS_P2;PMS_P1;PMS_P2;Temp;Humidity;BMP_temperature;BMP_pressure;BME280_temperature;BME280_humidity;BME280_pressure;Samples;Min_cycle;Max_cycle;Signal;HPM_P1;HPM_P2
2021/07/22 00:00:36;;;;;;;;;23.75;21.00;;;;;26.47;37.38;101643.50;5082217;27;45549;-66
2021/07/22 00:03:01;;;;;;;;;20.25;20.25;;;;;26.43;37.21;101642.84;5081844;28;45220;-67
2021/07/22 00:05:26;;;;;;;;;20.75;20.75;;;;;26.40;37.39;101637.63;5082015;27;45267;-66
2021/07/22 00:07:52;;;;;;;;;19.25;15.75;;;;;26.35;37.26;101635.25;5100347;27;45279;-67
2021/07/22 00:10:17;;;;;;;;;19.25;16.00;;;;;26.34;37.48;101640.72;5090614;27;45414;-67
2021/07/22 00:12:43;;;;;;;;;19.75;15.00;;;;;26.30;37.67;101631.13;5095214;27;46005;-66
2021/07/22 00:15:09;;;;;;;;;17.00;14.50;;;;;26.30;37.07;101637.38;5081855;28;45765;-67
2021/07/22 00:17:34;;;;;;;;;17.50;17.50;;;;;26.27;37.43;101645.69;5081811;27;45387;-67
2021/07/22 00:20:00;;;;;;;;;16.75;14.00;;;;;26.23;37.53;101636.94;5086762;27;45531;-67
2021/07/22 00:22:29;;;;;;;;;21.25;18.75;;;;;26.22;37.11;101637.03;5098677;27;47016;-67
2021/07/22 00:24:54;;;;;;;;;18.75;18.00;;;;;26.20;37.86;101636.25;5080312;28;45250;-67
2021/07/22 00:27:20;;;;;;;;;18.50;18.00;;;;;26.17;37.90;101636.50;5081370;27;45162;-66
2021/07/22 00:29:46;;;;;;;;;19.00;17.75;;;;;26.16;38.02;101645.53;5082030;27;45240;-67
2021/07/22 00:32:12;;;;;;;;;18.00;15.00;;;;;26.11;37.89;101641.31;5094985;27;46378;-66
2021/07/22 00:34:37;;;;;;;;;20.00;18.75;;;;;26.09;37.66;101637.00;5081591;27;45150;-67
2021/07/22 00:37:03;;;;;;;;;20.25;19.25;;;;;26.07;37.60;101638.91;5063350;28;45541;-67
2021/07/22 00:39:28;;;;;;;;;19.00;15.50;;;;;26.03;38.05;101649.00;5081563;28;45422;-67
2021/07/22 00:41:54;;;;;;;;;21.75;20.75;;;;;26.01;37.94;101642.88;5081017;27;45312;-66
2021/07/22 00:44:19;;;;;;;;;14.25;14.25;;;;;25.97;38.18;101644.00;5081480;27;45347;-66
2021/07/22 00:46:44;;;;;;;;;17.00;17.00;;;;;25.95;38.26;101638.72;5081207;27;45489;-67
2021/07/22 00:49:10;;;;;;;;;18.75;16.75;;;;;25.94;37.92;101642.38;5081417;27;45425;-67
2021/07/22 00:51:40;;;;;;;;;17.00;17.00;;;;;25.90;38.32;101640.84;5081165;27;46053;-66
2021/07/22 00:54:06;;;;;;;;;18.75;16.75;;;;;25.89;38.44;101639.13;5081047;27;45212;-66
2021/07/22 00:56:32;;;;;;;;;18.25;16.75;;;;;25.87;38.35;101638.34;5080458;27;45296;-66
2021/07/22 00:58:57;;;;;;;;;17.75;17.75;;;;;25.85;38.25;101643.00;5081120;27;45387;-66
2021/07/22 01:01:23;;;;;;;;;20.50;18.75;;;;;25.83;38.11;101644.91;5080792;28;46280;-66
2021/07/22 01:03:48;;;;;;;;;20.00;18.25;;;;;25.80;38.41;101645.13;5081473;27;45700;-61
2021/07/22 01:06:13;;;;;;;;;20.00;17.00;;;;;25.78;38.15;101641.66;5086819;27;45450;-61
2021/07/22 01:08:39;;;;;;;;;22.25;18.00;;;;;25.76;38.20;101643.56;5101190;27;45367;-61
2021/07/22 01:11:04;;;;;;;;;19.00;18.25;;;;;25.74;38.16;101649.06;5096437;27;46283;-61
2021/07/22 01:13:29;;;;;;;;;22.00;19.00;;;;;25.73;38.58;101654.53;5101411;27;45422;-62
2021/07/22 01:15:55;;;;;;;;;17.00;15.00;;;;;25.69;38.24;101647.63;5081912;27;45367;-61
2021/07/22 01:18:20;;;;;;;;;18.75;16.50;;;;;25.66;38.48;101648.69;5093382;27;45432;-62
2021/07/22 01:20:45;;;;;;;;;20.00;18.25;;;;;25.68;38.38;101653.97;5095504;27;45378;-61
2021/07/22 01:23:11;;;;;;;;;19.25;18.50;;;;;25.64;38.63;101653.31;5085576;27;45221;-61
2021/07/22 01:25:36;;;;;;;;;14.75;14.75;;;;;25.64;38.43;101650.59;5079406;27;45315;-62
2021/07/22 01:28:02;;;;;;;;;18.25;16.25;;;;;25.62;38.42;101649.84;5079237;27;45461;-61
2021/07/22 01:30:27;;;;;;;;;20.25;20.25;;;;;25.60;38.78;101644.56;5079109;28;46100;-62
2021/07/22 01:32:52;;;;;;;;;13.00;10.50;;;;;25.58;38.68;101648.31;5079287;28;45299;-61
2021/07/22 01:35:19;;;;;;;;;18.50;18.50;;;;;25.56;38.61;101645.72;5079343;27;45228;-61
2021/07/22 01:37:44;;;;;;;;;22.00;19.25;;;;;25.54;38.59;101649.47;5079238;27;45372;-61
2021/07/22 01:40:12;;;;;;;;;18.00;17.50;;;;;25.53;38.83;101645.91;5078607;28;46235;-61
2021/07/22 01:42:38;;;;;;;;;17.25;16.25;;;;;25.51;38.76;101638.88;5079010;27;45252;-61
2021/07/22 01:45:05;;;;;;;;;19.50;17.00;;;;;25.51;38.78;101644.28;5060962;28;45255;-62
2021/07/22 01:47:35;;;;;;;;;17.75;17.75;;;;;25.50;39.22;101647.91;5079011;28;45322;-62
2021/07/22 01:50:00;;;;;;;;;22.00;20.25;;;;;25.49;38.83;101643.53;5078611;27;46116;-62
2021/07/22 01:52:26;;;;;;;;;17.00;17.00;;;;;25.47;38.89;101643.59;5060849;28;45266;-62
2021/07/22 01:54:51;;;;;;;;;20.00;18.25;;;;;25.46;38.95;101647.28;5078812;28;45295;-61
2021/07/22 01:57:17;;;;;;;;;20.75;18.50;;;;;25.43;38.89;101647.44;5078609;28;52903;-62
2021/07/22 01:59:42;;;;;;;;;24.00;19.00;;;;;25.43;39.40;101642.06;5078724;27;45421;-61
2021/07/22 02:02:09;;;;;;;;;18.25;18.25;;;;;25.40;39.49;101637.75;5078933;28;45317;-61
2021/07/22 02:04:36;;;;;;;;;23.00;22.00;;;;;25.40;39.25;101636.91;5079072;28;45338;-62
2021/07/22 02:07:02;;;;;;;;;18.25;17.50;;;;;25.37;39.33;101637.97;5069077;27;45348;-62
2021/07/22 02:09:28;;;;;;;;;18.00;17.25;;;;;25.35;39.64;101633.59;5098677;27;46441;-61
2021/07/22 02:11:55;;;;;;;;;18.25;15.00;;;;;25.36;39.35;101638.91;5098964;27;45336;-61
2021/07/22 02:14:21;;;;;;;;;20.75;18.75;;;;;25.34;39.60;101639.94;5099223;27;45224;-61
2021/07/22 02:16:47;;;;;;;;;20.50;18.75;;;;;25.33;39.63;101632.81;5099135;27;45414;-61
2021/07/22 02:19:14;;;;;;;;;17.60;16.20;;;;;25.31;39.15;101641.00;5092415;27;1161843;-58
2021/07/22 02:21:40;;;;;;;;;20.00;17.00;;;;;25.28;39.42;101628.59;5100432;27;45266;-61
2021/07/22 02:24:07;;;;;;;;;19.00;15.25;;;;;25.26;39.65;101630.50;5100112;27;45504;-61
2021/07/22 02:26:33;;;;;;;;;20.00;16.75;;;;;25.25;39.80;101633.31;5100186;27;45283;-62
2021/07/22 02:28:59;;;;;;;;;16.75;15.00;;;;;25.24;39.48;101629.72;5100117;27;45420;-61
2021/07/22 02:31:24;;;;;;;;;18.75;18.25;;;;;25.22;39.34;101634.38;5100417;27;45457;-61
2021/07/22 02:33:50;;;;;;;;;19.75;19.50;;;;;25.20;39.30;101624.66;5100090;27;45542;-61
2021/07/22 02:36:15;;;;;;;;;21.25;20.00;;;;;25.19;39.60;101631.00;5100378;27;45288;-61
2021/07/22 02:38:40;;;;;;;;;19.50;18.75;;;;;25.17;39.68;101627.53;5099961;27;45298;-62
2021/07/22 02:41:06;;;;;;;;;17.25;17.25;;;;;25.14;39.86;101628.59;5082110;27;45385;-62
2021/07/22 02:43:32;;;;;;;;;23.75;19.00;;;;;25.13;39.75;101634.91;5100103;27;46112;-61
2021/07/22 02:45:58;;;;;;;;;19.75;18.00;;;;;25.12;39.50;101633.22;5098758;27;46387;-61
2021/07/22 02:48:23;;;;;;;;;19.75;17.50;;;;;25.09;39.84;101644.13;5099870;27;45414;-61
2021/07/22 02:50:48;;;;;;;;;20.25;17.50;;;;;25.08;39.75;101634.34;5100199;27;45244;-62
2021/07/22 02:53:14;;;;;;;;;18.50;16.75;;;;;25.04;39.76;101635.50;5099835;27;45338;-61
2021/07/22 02:55:39;;;;;;;;;19.00;17.00;;;;;25.02;39.80;101637.41;5078363;28;45331;-61
2021/07/22 02:58:06;;;;;;;;;22.50;19.50;;;;;25.01;39.76;101638.38;5093886;27;45208;-61
2021/07/22 03:00:31;;;;;;;;;19.00;17.00;;;;;24.99;40.13;101643.84;5100192;27;45218;-61
2021/07/22 03:03:01;;;;;;;;;17.75;16.00;;;;;24.95;39.93;101640.47;5099924;27;45323;-61
2021/07/22 03:05:30;;;;;;;;;18.00;17.25;;;;;24.93;40.02;101641.50;5099870;27;46159;-61
2021/07/22 03:07:59;;;;;;;;;19.00;16.25;;;;;24.91;40.15;101651.50;5099532;27;45220;-61
2021/07/22 03:10:25;;;;;;;;;18.00;16.75;;;;;24.88;39.90;101639.13;5088415;27;45378;-62
2021/07/22 03:12:52;;;;;;;;;19.75;17.50;;;;;24.87;40.17;101636.50;5095965;27;45321;-62
2021/07/22 03:15:18;;;;;;;;;20.75;17.50;;;;;24.86;40.09;101634.81;5081576;27;48509;-61
2021/07/22 03:17:43;;;;;;;;;21.75;16.75;;;;;24.84;40.27;101640.25;5099770;27;45261;-61
2021/07/22 03:20:09;;;;;;;;;16.50;16.50;;;;;24.81;40.06;101640.44;5103147;27;45472;-62
2021/07/22 03:22:34;;;;;;;;;16.75;16.75;;;;;24.81;40.68;101640.44;5103074;27;45233;-62
2021/07/22 03:25:00;;;;;;;;;16.75;15.50;;;;;24.78;40.13;101643.31;5102948;27;45253;-62
2021/07/22 03:27:25;;;;;;;;;21.50;18.25;;;;;24.77;40.39;101644.28;5102826;27;45301;-61
2021/07/22 03:29:50;;;;;;;;;22.00;18.50;;;;;24.71;40.16;101633.91;5084785;27;45189;-61
2021/07/22 03:32:16;;;;;;;;;15.25;15.25;;;;;24.71;40.38;101639.28;5102857;27;49295;-62
2021/07/22 03:34:41;;;;;;;;;20.50;19.50;;;;;24.70;40.23;101637.53;5103078;27;51396;-62
2021/07/22 03:37:06;;;;;;;;;21.00;19.25;;;;;24.67;40.29;101639.44;5102950;27;45162;-61
2021/07/22 03:39:32;;;;;;;;;18.00;17.00;;;;;24.66;40.61;101642.22;5102961;27;45146;-62
2021/07/22 03:41:57;;;;;;;;;17.75;17.75;;;;;24.63;40.23;101635.19;5102787;27;45359;-61
2021/07/22 03:44:22;;;;;;;;;19.75;16.50;;;;;24.62;40.44;101637.97;5103093;27;45378;-61
2021/07/22 03:46:48;;;;;;;;;22.75;19.75;;;;;24.58;40.64;101639.09;5102739;27;45251;-61
2021/07/22 03:49:13;;;;;;;;;16.50;14.75;;;;;24.58;40.51;101639.09;5103058;27;45695;-61
2021/07/22 03:51:38;;;;;;;;;19.75;17.50;;;;;24.57;40.59;101646.28;5102929;27;45851;-62
2021/07/22 03:54:05;;;;;;;;;14.75;14.25;;;;;24.52;40.71;101637.66;5102560;27;46258;-61
2021/07/22 03:56:30;;;;;;;;;20.50;19.50;;;;;24.53;40.73;101644.75;5102672;27;45339;-62
2021/07/22 03:58:55;;;;;;;;;21.00;17.50;;;;;24.52;40.66;101640.34;5102605;27;45415;-61
2021/07/22 04:01:21;;;;;;;;;20.75;18.75;;;;;24.50;40.47;101645.81;5102655;27;45409;-61
2021/07/22 04:03:46;;;;;;;;;22.50;18.00;;;;;24.48;40.46;101625.38;5102573;27;46091;-61
2021/07/22 04:06:11;;;;;;;;;17.25;15.25;;;;;24.46;40.71;101638.00;5102448;27;45331;-62
2021/07/22 04:08:38;;;;;;;;;18.50;16.00;;;;;24.45;40.81;101641.63;5102440;27;45326;-61
2021/07/22 04:11:03;;;;;;;;;21.75;17.50;;;;;24.41;40.54;101642.78;5102376;27;45363;-61
2021/07/22 04:13:29;;;;;;;;;21.00;19.25;;;;;24.29;41.12;101621.06;5102162;27;46262;-61
2021/07/22 04:15:54;;;;;;;;;19.75;15.75;;;;;24.39;40.76;101636.63;5102458;27;46453;-62
2021/07/22 04:18:19;;;;;;;;;21.25;19.75;;;;;24.36;40.90;101640.34;5102579;27;45367;-61
2021/07/22 04:20:45;;;;;;;;;27.25;21.75;;;;;24.35;40.79;101635.94;5102098;27;45461;-61
2021/07/22 04:23:10;;;;;;;;;19.50;17.00;;;;;24.33;40.89;101646.78;5102072;27;46028;-61
2021/07/22 04:25:35;;;;;;;;;23.00;20.75;;;;;24.32;40.95;101644.19;5102174;27;45216;-61
2021/07/22 04:28:00;;;;;;;;;19.75;19.75;;;;;24.30;40.95;101644.28;5102408;27;45204;-61
2021/07/22 04:30:26;;;;;;;;;20.00;17.25;;;;;24.29;40.90;101644.38;5101061;27;45402;-62
2021/07/22 04:32:56;;;;;;;;;26.00;23.25;;;;;24.27;40.88;101644.44;5102088;27;46103;-61
2021/07/22 04:35:22;;;;;;;;;20.50;20.00;;;;;24.24;40.87;101639.25;5102053;27;45276;-61
2021/07/22 04:37:47;;;;;;;;;19.00;18.00;;;;;24.24;41.11;101655.38;5102174;27;45248;-61
2021/07/22 04:40:12;;;;;;;;;19.50;19.00;;;;;24.22;41.16;101651.91;5101692;27;45482;-61
2021/07/22 04:42:38;;;;;;;;;24.50;21.75;;;;;24.19;41.30;101654.78;5101789;27;45383;-61
2021/07/22 04:45:03;;;;;;;;;18.25;16.50;;;;;24.18;41.56;101659.25;5081249;27;45301;-61
2021/07/22 04:47:29;;;;;;;;;21.00;18.50;;;;;24.16;41.13;101655.81;5102358;27;45232;-61
2021/07/22 04:49:54;;;;;;;;;18.25;18.25;;;;;24.17;41.19;101664.72;5101711;27;45431;-61
2021/07/22 04:52:19;;;;;;;;;22.25;19.25;;;;;24.16;41.13;101671.06;5101931;27;45219;-61
2021/07/22 04:54:45;;;;;;;;;20.25;15.50;;;;;24.13;41.27;101674.78;5080489;27;45267;-61
2021/07/22 04:57:10;;;;;;;;;19.00;18.25;;;;;24.14;41.07;101662.25;5101964;27;45224;-62
2021/07/22 04:59:35;;;;;;;;;19.25;17.50;;;;;24.12;41.35;101670.34;5101695;27;45497;-61
2021/07/22 05:02:01;;;;;;;;;18.75;17.25;;;;;24.11;41.20;101673.13;5101678;27;45238;-61
2021/07/22 05:04:26;;;;;;;;;22.00;20.00;;;;;24.10;41.57;101668.72;5083213;27;45239;-61
2021/07/22 05:06:51;;;;;;;;;22.75;20.00;;;;;24.11;41.29;101670.44;5083466;27;45413;-61
2021/07/22 05:09:17;;;;;;;;;34.00;30.50;;;;;24.10;41.52;101676.75;5100974;27;50753;-61
2021/07/22 05:11:42;;;;;;;;;69.50;56.25;;;;;24.09;41.33;101681.28;5101378;27;45211;-61
2021/07/22 05:14:07;;;;;;;;;21.25;18.00;;;;;24.08;41.44;101673.31;5101240;27;47513;-61
2021/07/22 05:16:33;;;;;;;;;23.75;21.00;;;;;24.06;41.20;101672.53;5101784;27;45315;-61
2021/07/22 05:18:58;;;;;;;;;23.00;23.00;;;;;24.06;41.76;101675.22;5101329;27;45501;-61
2021/07/22 05:21:24;;;;;;;;;25.25;19.25;;;;;24.06;41.40;101670.69;5100834;27;47165;-61
2021/07/22 05:23:50;;;;;;;;;19.75;19.75;;;;;24.05;41.45;101678.84;5101081;27;45290;-61
2021/07/22 05:26:16;;;;;;;;;20.50;18.75;;;;;24.01;41.32;101673.66;5101413;27;45470;-61
2021/07/22 05:28:41;;;;;;;;;23.00;22.00;;;;;24.02;41.54;101680.78;5079534;28;45318;-61
2021/07/22 05:31:07;;;;;;;;;19.75;18.25;;;;;24.02;41.76;101680.78;5087610;27;46027;-61
2021/07/22 05:33:34;;;;;;;;;24.75;22.00;;;;;24.01;41.55;101678.16;5101282;27;45291;-61
2021/07/22 05:36:04;;;;;;;;;24.00;22.25;;;;;24.01;41.50;101679.03;5082965;27;45290;-61
2021/07/22 05:38:31;;;;;;;;;19.75;18.50;;;;;24.02;41.57;101679.88;5100891;27;45434;-62
2021/07/22 05:41:04;;;;;;;;;16.75;16.00;;;;;24.01;41.65;101672.78;5100521;27;47048;-61
2021/07/22 05:43:30;;;;;;;;;23.50;20.50;;;;;24.01;41.67;101670.97;5100821;27;45614;-61
2021/07/22 05:45:56;;;;;;;;;18.75;18.75;;;;;24.00;41.80;101671.94;5101000;27;45321;-61
2021/07/22 05:48:21;;;;;;;;;21.25;20.00;;;;;24.01;41.71;101675.47;5100808;27;45291;-62
2021/07/22 05:50:49;;;;;;;;;19.00;19.00;;;;;24.01;41.76;101676.34;5082536;27;47126;-61
2021/07/22 05:53:14;;;;;;;;;25.75;22.00;;;;;24.02;41.68;101680.78;5100776;27;45311;-61
2021/07/22 05:55:39;;;;;;;;;30.75;27.50;;;;;24.03;41.61;101678.94;5101026;27;45485;-61
2021/07/22 05:58:05;;;;;;;;;34.00;29.00;;;;;24.01;41.80;101670.09;5100724;27;45465;-61
2021/07/22 06:00:30;;;;;;;;;27.25;25.00;;;;;24.05;41.90;101673.47;5078994;28;48062;-61
2021/07/22 06:02:56;;;;;;;;;20.50;19.50;;;;;24.05;41.64;101678.84;5096282;27;45424;-61
2021/07/22 06:05:21;;;;;;;;;18.25;17.25;;;;;24.06;41.78;101675.22;5100919;27;45221;-61
2021/07/22 06:07:47;;;;;;;;;23.50;21.25;;;;;24.06;41.53;101680.59;5100528;27;45459;-61
2021/07/22 06:10:13;;;;;;;;;17.75;16.00;;;;;24.04;41.97;101682.47;5100053;27;46029;-61
2021/07/22 06:12:42;;;;;;;;;19.25;18.75;;;;;24.05;41.70;101669.00;5100519;27;45247;-61
2021/07/22 06:15:10;;;;;;;;;23.25;23.25;;;;;24.09;41.69;101677.75;5100808;27;45343;-61
2021/07/22 06:17:35;;;;;;;;;20.50;18.50;;;;;24.08;41.90;101670.63;5100355;27;45312;-61
2021/07/22 06:20:02;;;;;;;;;21.25;21.25;;;;;24.10;41.65;101672.28;5081828;27;46318;-61
2021/07/22 06:22:27;;;;;;;;;19.00;18.00;;;;;24.12;42.03;101672.19;5100418;27;45461;-62
2021/07/22 06:24:52;;;;;;;;;21.75;20.75;;;;;24.12;41.89;101681.09;5100453;27;45222;-62
2021/07/22 06:27:18;;;;;;;;;21.75;20.00;;;;;24.13;41.90;101676.59;5080350;27;46651;-62
2021/07/22 06:29:43;;;;;;;;;23.75;19.75;;;;;24.12;41.67;101674.88;5100565;27;45185;-61
2021/07/22 06:32:08;;;;;;;;;25.50;22.25;;;;;24.14;41.87;101679.19;5100342;27;45520;-61
2021/07/22 06:34:34;;;;;;;;;18.75;16.50;;;;;24.18;41.72;101677.22;5078816;28;45392;-61
2021/07/22 06:36:59;;;;;;;;;23.25;20.75;;;;;24.18;41.81;101678.06;5095157;27;45453;-62
2021/07/22 06:39:25;;;;;;;;;21.50;21.00;;;;;24.21;41.70;101679.69;5100047;27;45991;-62
2021/07/22 06:41:56;;;;;;;;;23.50;21.50;;;;;24.23;41.87;101677.81;5099976;27;45409;-61
2021/07/22 06:44:21;;;;;;;;;22.50;19.25;;;;;24.24;42.17;101678.66;5100631;27;45269;-62
2021/07/22 06:46:46;;;;;;;;;26.25;22.50;;;;;24.24;41.67;101679.53;5099765;27;48364;-62
2021/07/22 06:49:12;;;;;;;;;24.00;21.75;;;;;24.22;41.81;101665.34;5100441;27;46360;-63
2021/07/22 06:51:38;;;;;;;;;26.75;21.25;;;;;24.27;41.56;101673.97;5099979;27;45738;-61
2021/07/22 06:54:03;;;;;;;;;22.50;18.75;;;;;24.30;41.74;101672.94;5083922;27;45271;-61
2021/07/22 06:56:28;;;;;;;;;19.75;17.25;;;;;24.32;41.84;101679.09;5103590;27;45528;-62
2021/07/22 06:58:54;;;;;;;;;27.25;23.50;;;;;24.32;41.84;101671.03;5103518;27;46094;-62
2021/07/22 07:01:19;;;;;;;;;24.50;23.25;;;;;24.37;41.58;101678.84;5103602;27;45985;-61
2021/07/22 07:03:44;;;;;;;;;24.25;18.50;;;;;24.38;41.60;101681.44;5103780;27;45236;-62
2021/07/22 07:06:10;;;;;;;;;24.00;20.75;;;;;24.37;41.73;101668.94;5103290;27;45310;-52
2021/07/22 07:08:35;;;;;;;;;25.75;23.25;;;;;24.42;41.62;101674.06;5103083;27;46090;-55
2021/07/22 07:11:00;;;;;;;;;31.00;27.50;;;;;24.44;41.61;101674.81;5103392;27;45356;-53
2021/07/22 07:13:26;;;;;;;;;26.75;25.50;;;;;24.46;41.55;101673.78;5103446;27;45461;-53
2021/07/22 07:15:51;;;;;;;;;21.25;20.25;;;;;24.48;41.74;101669.19;5103244;27;45442;-52
2021/07/22 07:18:16;;;;;;;;;19.50;19.00;;;;;24.53;41.56;101682.38;5084906;27;45979;-53
2021/07/22 07:20:42;;;;;;;;;26.00;24.50;;;;;24.52;41.64;101671.72;5102965;27;45346;-63
2021/07/22 07:23:07;;;;;;;;;26.00;22.00;;;;;24.57;41.44;101678.53;5103300;27;45376;-62
2021/07/22 07:25:33;;;;;;;;;23.25;20.75;;;;;24.60;41.44;101677.50;5103143;27;45248;-61
2021/07/22 07:27:59;;;;;;;;;20.25;19.75;;;;;24.63;41.62;101674.63;5103099;27;46031;-61
2021/07/22 07:30:25;;;;;;;;;21.50;20.50;;;;;24.65;41.65;101673.63;5103028;27;45265;-61
2021/07/22 07:32:54;;;;;;;;;20.00;18.50;;;;;24.69;41.37;101676.13;5103109;27;45295;-61
2021/07/22 07:35:23;;;;;;;;;20.50;20.00;;;;;24.71;41.53;101676.91;5102978;27;45511;-61
2021/07/22 07:37:48;;;;;;;;;29.00;25.50;;;;;24.74;41.41;101674.00;5102649;27;47482;-61
2021/07/22 07:40:14;;;;;;;;;23.75;20.25;;;;;24.76;41.08;101674.81;5102678;27;45311;-62
2021/07/22 07:42:39;;;;;;;;;20.50;17.00;;;;;24.79;41.24;101671.91;5102918;27;45312;-61
2021/07/22 07:45:06;;;;;;;;;25.75;20.50;;;;;24.80;41.62;101670.97;5102790;27;45519;-61
2021/07/22 07:47:31;;;;;;;;;24.25;22.00;;;;;24.86;41.07;101675.97;5102805;27;47327;-62
2021/07/22 07:49:56;;;;;;;;;19.25;19.25;;;;;24.88;41.31;101674.06;5102813;27;45335;-62
2021/07/22 07:52:22;;;;;;;;;23.25;23.00;;;;;24.91;41.12;101671.19;5103065;27;45467;-61
2021/07/22 07:54:51;;;;;;;;;21.50;20.00;;;;;24.96;41.17;101670.91;5102607;27;45386;-61
2021/07/22 07:57:16;;;;;;;;;20.75;18.00;;;;;24.98;40.80;101674.34;5102521;27;46136;-62
2021/07/22 07:59:42;;;;;;;;;23.50;20.50;;;;;25.03;40.67;101671.41;5102497;27;45327;-62
2021/07/22 08:02:08;;;;;;;;;23.25;21.50;;;;;25.05;40.56;101673.03;5102805;27;45356;-61
2021/07/22 08:04:35;;;;;;;;;20.25;19.75;;;;;25.09;41.00;101671.91;5102402;27;45456;-62
2021/07/22 08:07:00;;;;;;;;;22.25;19.00;;;;;25.14;40.85;101674.28;5102395;27;45396;-61
2021/07/22 08:09:25;;;;;;;;;19.00;18.00;;;;;25.17;40.38;101676.81;5102084;27;45442;-61
2021/07/22 08:11:51;;;;;;;;;19.50;19.50;;;;;25.21;40.42;101675.66;5102440;27;45367;-62
2021/07/22 08:14:16;;;;;;;;;20.50;19.00;;;;;25.26;40.43;101670.00;5102389;27;45340;-61
2021/07/22 08:16:43;;;;;;;;;23.50;22.00;;;;;25.30;40.34;101668.84;5102362;27;46222;-61
2021/07/22 08:19:09;;;;;;;;;26.75;21.00;;;;;25.31;40.69;101666.06;5102410;27;45748;-61
2021/07/22 08:21:34;;;;;;;;;20.75;18.75;;;;;25.38;40.06;101665.72;5101968;27;45520;-61
2021/07/22 08:23:59;;;;;;;;;23.50;19.25;;;;;25.41;40.28;101671.75;5101974;27;45351;-62
2021/07/22 08:26:24;;;;;;;;;22.50;18.75;;;;;25.44;40.51;101671.56;5102058;27;47424;-61
2021/07/22 08:28:50;;;;;;;;;20.75;20.75;;;;;25.47;39.77;101659.75;5101996;27;45377;-62
2021/07/22 08:31:17;;;;;;;;;22.50;21.00;;;;;25.52;40.14;101660.34;5080469;28;45555;-61
2021/07/22 08:33:43;;;;;;;;;20.50;18.25;;;;;25.57;39.94;101668.97;5096468;27;45358;-61
2021/07/22 08:36:08;;;;;;;;;19.50;18.50;;;;;25.58;39.69;101659.91;5101935;27;45311;-61
2021/07/22 08:38:33;;;;;;;;;21.25;19.75;;;;;25.66;39.67;101675.59;5081171;27;45361;-61
2021/07/22 08:40:59;;;;;;;;;19.75;19.00;;;;;25.67;40.16;101663.84;5102209;27;45333;-62
2021/07/22 08:43:26;;;;;;;;;19.50;18.00;;;;;25.74;39.44;101669.72;5080865;27;45426;-62
2021/07/22 08:45:53;;;;;;;;;18.75;18.00;;;;;25.78;39.77;101674.81;5101716;27;46199;-62
2021/07/22 08:48:19;;;;;;;;;20.00;17.75;;;;;25.83;39.33;101663.75;5101781;27;45223;-62
2021/07/22 08:50:45;;;;;;;;;18.25;18.25;;;;;25.87;39.71;101667.09;5101857;27;45454;-61
2021/07/22 08:53:14;;;;;;;;;20.75;19.75;;;;;25.90;39.22;101667.78;5101376;27;45410;-62
2021/07/22 08:55:43;;;;;;;;;15.50;15.50;;;;;25.96;39.05;101667.38;5083341;27;48139;-61
2021/07/22 08:58:09;;;;;;;;;20.75;16.75;;;;;25.97;39.39;101662.84;5101641;27;45256;-62
2021/07/22 09:00:35;;;;;;;;;21.50;17.50;;;;;26.07;39.02;101668.53;5083433;27;45409;-61
2021/07/22 09:03:01;;;;;;;;;17.50;17.50;;;;;26.11;38.93;101670.94;5101747;27;45240;-61
2021/07/22 09:05:28;;;;;;;;;21.00;18.00;;;;;26.17;39.13;101674.19;5079997;28;48017;-61
2021/07/22 09:07:53;;;;;;;;;17.25;17.25;;;;;26.21;39.67;101673.91;5096228;27;45561;-61
2021/07/22 09:10:19;;;;;;;;;20.00;18.50;;;;;26.27;39.56;101675.31;5101597;27;45389;-62
2021/07/22 09:12:52;;;;;;;;;21.75;19.50;;;;;26.32;39.12;101683.09;5101312;27;45454;-62
2021/07/22 09:15:34;;;;;;;;;23.00;21.25;;;;;26.38;39.36;101680.00;5101046;27;46310;-60
2021/07/22 09:17:59;;;;;;;;;21.50;19.50;;;;;26.41;39.62;101672.56;5101102;27;45400;-62
2021/07/22 09:20:33;;;;;;;;;22.00;21.00;;;;;26.48;39.33;101672.13;5079266;28;45315;-62
2021/07/22 09:23:03;;;;;;;;;23.00;19.75;;;;;26.50;38.98;101662.97;5101034;27;45571;-61
2021/07/22 09:25:39;;;;;;;;;19.75;18.75;;;;;26.57;38.98;101669.69;5079549;27;45288;-62
2021/07/22 09:28:05;;;;;;;;;23.25;19.50;;;;;26.63;39.62;101671.13;5101081;27;45327;-60
2021/07/22 09:30:30;;;;;;;;;17.75;17.75;;;;;26.69;38.65;101669.81;5101167;27;45239;-61
2021/07/22 09:32:55;;;;;;;;;21.00;20.50;;;;;26.73;38.92;101674.94;5101199;27;45228;-61
2021/07/22 09:35:22;;;;;;;;;23.00;20.50;;;;;26.79;39.38;101673.66;5101090;27;45493;-62
2021/07/22 09:37:54;;;;;;;;;21.00;20.25;;;;;26.84;39.07;101678.72;5101005;27;45161;-62
2021/07/22 09:40:25;;;;;;;;;20.50;17.50;;;;;26.90;38.70;101663.00;5082719;27;45422;-62
2021/07/22 09:42:54;;;;;;;;;18.75;18.00;;;;;26.96;38.93;101669.81;5100960;27;45396;-61
2021/07/22 09:45:23;;;;;;;;;20.25;17.50;;;;;26.99;38.69;101663.34;5082092;27;47410;-62
2021/07/22 09:47:49;;;;;;;;;19.50;15.75;;;;;27.07;38.64;101663.69;5100834;27;45376;-61
2021/07/22 09:50:17;;;;;;;;;16.75;16.25;;;;;27.14;38.60;101664.94;5100785;27;45331;-61
2021/07/22 09:52:44;;;;;;;;;16.25;15.75;;;;;27.21;38.68;101660.84;5101032;27;45398;-61
2021/07/22 09:55:28;;;;;;;;;18.75;14.25;;;;;27.29;38.96;101659.47;5100551;27;46491;-61
2021/07/22 09:57:57;;;;;;;;;16.75;14.25;;;;;27.35;38.82;101654.47;5100835;27;45283;-61
2021/07/22 10:00:24;;;;;;;;;19.25;18.25;;;;;27.44;39.03;101652.16;5100682;27;45275;-62
2021/07/22 10:02:51;;;;;;;;;17.50;16.00;;;;;27.51;38.90;101646.19;5100650;27;45520;-60
2021/07/22 10:05:21;;;;;;;;;18.25;17.50;;;;;27.57;38.92;101645.75;5078812;28;47204;-61
2021/07/22 10:07:47;;;;;;;;;16.75;16.25;;;;;27.64;38.56;101640.75;5094030;27;45262;-61
2021/07/22 10:10:12;;;;;;;;;23.00;21.00;;;;;27.74;38.12;101643.66;5100530;27;45361;-61
2021/07/22 10:12:48;;;;;;;;;17.75;17.75;;;;;27.83;38.34;101639.44;5100389;27;45320;-61
2021/07/22 10:15:14;;;;;;;;;20.50;16.50;;;;;27.92;38.67;101644.13;5100548;27;46269;-61
2021/07/22 10:17:41;;;;;;;;;18.25;15.75;;;;;28.00;38.04;101636.34;5082035;27;45357;-61
2021/07/22 10:20:08;;;;;;;;;18.00;18.00;;;;;28.09;38.50;101629.41;5082150;27;45351;-61
2021/07/22 10:22:35;;;;;;;;;17.25;15.50;;;;;28.17;38.64;101635.09;5100285;27;45489;-61
2021/07/22 10:25:00;;;;;;;;;18.00;16.00;;;;;28.27;38.20;101629.00;5100263;27;46368;-61
2021/07/22 10:27:27;;;;;;;;;16.50;14.25;;;;;28.36;38.04;101631.00;5099937;27;45273;-62
2021/07/22 10:29:53;;;;;;;;;19.25;18.25;;;;;28.44;37.64;101627.72;5082245;28;45276;-61
2021/07/22 10:32:22;;;;;;;;;22.25;15.75;;;;;28.53;37.63;101624.31;5100383;27;45474;-61
2021/07/22 10:34:49;;;;;;;;;17.50;15.00;;;;;28.63;37.59;101629.84;5103807;27;45384;-62
2021/07/22 10:37:18;;;;;;;;;16.75;13.75;;;;;28.76;37.31;101619.00;5103780;27;45234;-62
2021/07/22 10:40:09;;;;;;;;;16.75;15.75;;;;;28.88;37.29;101622.59;5103854;27;45228;-61
2021/07/22 10:42:40;;;;;;;;;16.00;12.50;;;;;28.98;37.31;101615.47;5103955;27;45320;-62
2021/07/22 10:45:18;;;;;;;;;14.00;14.00;;;;;29.12;37.21;101623.38;5103655;27;45367;-62
2021/07/22 10:47:58;;;;;;;;;19.50;17.50;;;;;29.30;37.15;101621.06;5103891;27;45310;-62
2021/07/22 10:50:45;;;;;;;;;16.75;15.25;;;;;29.47;37.11;101622.41;5103719;27;45320;-60
2021/07/22 10:53:11;;;;;;;;;14.00;14.00;;;;;29.73;37.09;101622.13;5084980;27;45496;-61
2021/07/22 10:55:43;;;;;;;;;14.75;13.50;;;;;30.06;36.78;101608.66;5082055;28;45385;-61
2021/07/22 10:58:23;;;;;;;;;14.00;14.00;;;;;30.45;36.68;101609.84;5098905;27;45375;-60
2021/07/22 11:00:49;;;;;;;;;15.50;13.25;;;;;30.84;36.61;101608.41;5103721;27;45390;-60
2021/07/22 11:03:36;;;;;;;;;14.00;14.00;;;;;31.34;36.49;101610.41;5081907;28;45317;-62
2021/07/22 11:06:12;;;;;;;;;18.75;15.00;;;;;31.81;36.57;101609.81;5097026;27;45540;-61